sensor_id;sensor_type;location;lat;lon;timestamp;pressure;altitude;pressure_sealevel;temperature
76898;BMP180;65856;52.178;21.176;2023-03-13T00:01:19;99960.40;;;1.30
76898;BMP180;65856;52.178;21.176;2023-03-13T00:03:48;99953.80;;;1.30
76898;BMP180;65856;52.178;21.176;2023-03-13T00:06:17;99951.40;;;1.30
76898;BMP180;65856;52.178;21.176;2023-03-13T00:08:45;99948.60;;;1.30
76898;BMP180;65856;52.178;21.176;2023-03-13T00:11:15;99942.20;;;1.34
76898;BMP180;65856;52.178;21.176;2023-03-13T00:13:43;99938.60;;;1.38
76898;BMP180;65856;52.178;21.176;2023-03-13T00:16:14;99938.20;;;1.34
76898;BMP180;65856;52.178;21.176;2023-03-13T00:18:47;99935.00;;;1.32
76898;BMP180;65856;52.178;21.176;2023-03-13T00:21:17;99941.00;;;1.30
76898;BMP180;65856;52.178;21.176;2023-03-13T00:23:46;99934.20;;;1.30
76898;BMP180;65856;52.178;21.176;2023-03-13T00:26:18;99935.00;;;1.32
76898;BMP180;65856;52.178;21.176;2023-03-13T00:28:47;99935.00;;;1.30
76898;BMP180;65856;52.178;21.176;2023-03-13T00:31:17;99929.40;;;1.30
76898;BMP180;65856;52.178;21.176;2023-03-13T00:33:48;99931.20;;;1.30
76898;BMP180;65856;52.178;21.176;2023-03-13T00:36:22;99927.60;;;1.40
76898;BMP180;65856;52.178;21.176;2023-03-13T00:38:51;99926.60;;;1.40
76898;BMP180;65856;52.178;21.176;2023-03-13T00:41:22;99926.20;;;1.50
76898;BMP180;65856;52.178;21.176;2023-03-13T00:43:51;99934.00;;;1.58
76898;BMP180;65856;52.178;21.176;2023-03-13T00:46:22;99933.80;;;1.60
76898;BMP180;65856;52.178;21.176;2023-03-13T00:48:51;99932.80;;;1.70
76898;BMP180;65856;52.178;21.176;2023-03-13T00:51:22;99936.00;;;1.78
76898;BMP180;65856;52.178;21.176;2023-03-13T00:53:50;99934.20;;;1.80
76898;BMP180;65856;52.178;21.176;2023-03-13T00:56:19;99935.60;;;1.80
76898;BMP180;65856;52.178;21.176;2023-03-13T00:58:49;99936.40;;;1.80
76898;BMP180;65856;52.178;21.176;2023-03-13T01:01:20;99936.20;;;1.80
76898;BMP180;65856;52.178;21.176;2023-03-13T01:03:52;99935.40;;;1.80
76898;BMP180;65856;52.178;21.176;2023-03-13T01:06:23;99938.80;;;1.80
76898;BMP180;65856;52.178;21.176;2023-03-13T01:08:53;99935.40;;;1.80
76898;BMP180;65856;52.178;21.176;2023-03-13T01:11:24;99926.80;;;1.80
76898;BMP180;65856;52.178;21.176;2023-03-13T01:13:55;99920.60;;;1.80
76898;BMP180;65856;52.178;21.176;2023-03-13T01:16:26;99915.20;;;1.80
76898;BMP180;65856;52.178;21.176;2023-03-13T01:18:58;99914.20;;;1.80
76898;BMP180;65856;52.178;21.176;2023-03-13T01:21:27;99908.60;;;1.80
76898;BMP180;65856;52.178;21.176;2023-03-13T01:23:56;99895.00;;;1.80
76898;BMP180;65856;52.178;21.176;2023-03-13T01:26:25;99891.20;;;1.80
76898;BMP180;65856;52.178;21.176;2023-03-13T01:28:53;99884.40;;;1.74
76898;BMP180;65856;52.178;21.176;2023-03-13T01:31:24;99888.40;;;1.70
76898;BMP180;65856;52.178;21.176;2023-03-13T01:33:56;99888.20;;;1.70
76898;BMP180;65856;52.178;21.176;2023-03-13T01:36:24;99888.20;;;1.70
76898;BMP180;65856;52.178;21.176;2023-03-13T01:38:55;99887.80;;;1.70
76898;BMP180;65856;52.178;21.176;2023-03-13T01:41:25;99886.40;;;1.70
76898;BMP180;65856;52.178;21.176;2023-03-13T01:43:54;99883.40;;;1.70
76898;BMP180;65856;52.178;21.176;2023-03-13T01:46:23;99880.00;;;1.72
76898;BMP180;65856;52.178;21.176;2023-03-13T01:48:57;99874.20;;;1.72
76898;BMP180;65856;52.178;21.176;2023-03-13T01:51:31;99867.40;;;1.74
76898;BMP180;65856;52.178;21.176;2023-03-13T01:54:07;99864.60;;;1.80
76898;BMP180;65856;52.178;21.176;2023-03-13T01:56:44;99861.60;;;1.80
76898;BMP180;65856;52.178;21.176;2023-03-13T01:59:21;99859.40;;;1.72
76898;BMP180;65856;52.178;21.176;2023-03-13T02:01:53;99857.00;;;1.70
76898;BMP180;65856;52.178;21.176;2023-03-13T02:04:24;99849.00;;;1.70
76898;BMP180;65856;52.178;21.176;2023-03-13T02:06:59;99858.00;;;1.70
76898;BMP180;65856;52.178;21.176;2023-03-13T02:09:31;99860.40;;;1.60
76898;BMP180;65856;52.178;21.176;2023-03-13T02:12:07;99859.00;;;1.60
76898;BMP180;65856;52.178;21.176;2023-03-13T02:14:41;99852.20;;;1.60
76898;BMP180;65856;52.178;21.176;2023-03-13T02:17:11;99857.80;;;1.52
76898;BMP180;65856;52.178;21.176;2023-03-13T02:19:42;99857.40;;;1.50
76898;BMP180;65856;52.178;21.176;2023-03-13T02:22:21;99851.20;;;1.50
76898;BMP180;65856;52.178;21.176;2023-03-13T02:24:57;99850.20;;;1.60
76898;BMP180;65856;52.178;21.176;2023-03-13T02:27:28;99843.00;;;1.60
76898;BMP180;65856;52.178;21.176;2023-03-13T02:29:58;99841.40;;;1.70
76898;BMP180;65856;52.178;21.176;2023-03-13T02:32:27;99841.40;;;1.70
76898;BMP180;65856;52.178;21.176;2023-03-13T02:35:01;99838.80;;;1.80
76898;BMP180;65856;52.178;21.176;2023-03-13T02:37:32;99842.40;;;1.80
76898;BMP180;65856;52.178;21.176;2023-03-13T02:40:04;99843.80;;;1.80
76898;BMP180;65856;52.178;21.176;2023-03-13T02:42:37;99838.60;;;1.80
76898;BMP180;65856;52.178;21.176;2023-03-13T02:45:12;99835.80;;;1.82
76898;BMP180;65856;52.178;21.176;2023-03-13T02:47:40;99841.20;;;1.80
76898;BMP180;65856;52.178;21.176;2023-03-13T02:50:10;99843.20;;;1.80
76898;BMP180;65856;52.178;21.176;2023-03-13T02:52:43;99838.40;;;1.80
76898;BMP180;65856;52.178;21.176;2023-03-13T02:55:15;99840.40;;;1.80
76898;BMP180;65856;52.178;21.176;2023-03-13T02:57:45;99835.40;;;1.80
76898;BMP180;65856;52.178;21.176;2023-03-13T03:00:15;99844.60;;;1.80
76898;BMP180;65856;52.178;21.176;2023-03-13T03:02:44;99845.40;;;1.80
76898;BMP180;65856;52.178;21.176;2023-03-13T03:05:13;99843.00;;;1.82
76898;BMP180;65856;52.178;21.176;2023-03-13T03:07:41;99837.60;;;1.80
76898;BMP180;65856;52.178;21.176;2023-03-13T03:10:11;99836.40;;;1.80
76898;BMP180;65856;52.178;21.176;2023-03-13T03:12:39;99837.40;;;1.80
76898;BMP180;65856;52.178;21.176;2023-03-13T03:15:10;99833.00;;;1.80
76898;BMP180;65856;52.178;21.176;2023-03-13T03:17:38;99831.40;;;1.90
76898;BMP180;65856;52.178;21.176;2023-03-13T03:20:09;99834.40;;;2.00
76898;BMP180;65856;52.178;21.176;2023-03-13T03:22:38;99835.00;;;2.02
76898;BMP180;65856;52.178;21.176;2023-03-13T03:25:08;99843.00;;;2.10
76898;BMP180;65856;52.178;21.176;2023-03-13T03:27:37;99836.80;;;2.10
76898;BMP180;65856;52.178;21.176;2023-03-13T03:30:08;99830.40;;;2.10
76898;BMP180;65856;52.178;21.176;2023-03-13T03:32:37;99828.80;;;2.10
76898;BMP180;65856;52.178;21.176;2023-03-13T03:35:07;99832.40;;;2.10
76898;BMP180;65856;52.178;21.176;2023-03-13T03:37:35;99837.20;;;2.10
76898;BMP180;65856;52.178;21.176;2023-03-13T03:40:04;99840.20;;;2.10
76898;BMP180;65856;52.178;21.176;2023-03-13T03:42:33;99834.60;;;2.10
76898;BMP180;65856;52.178;21.176;2023-03-13T03:45:01;99831.60;;;2.08
76898;BMP180;65856;52.178;21.176;2023-03-13T03:47:29;99836.20;;;2.10
76898;BMP180;65856;52.178;21.176;2023-03-13T03:49:57;99833.80;;;2.00
76898;BMP180;65856;52.178;21.176;2023-03-13T03:52:25;99832.80;;;2.00
76898;BMP180;65856;52.178;21.176;2023-03-13T03:54:53;99835.20;;;2.00
76898;BMP180;65856;52.178;21.176;2023-03-13T03:57:21;99833.80;;;2.00
76898;BMP180;65856;52.178;21.176;2023-03-13T03:59:49;99834.20;;;2.00
76898;BMP180;65856;52.178;21.176;2023-03-13T04:02:17;99832.60;;;2.06
76898;BMP180;65856;52.178;21.176;2023-03-13T04:04:45;99828.80;;;2.10
76898;BMP180;65856;52.178;21.176;2023-03-13T04:07:13;99815.40;;;2.14
76898;BMP180;65856;52.178;21.176;2023-03-13T04:09:41;99808.60;;;2.20
76898;BMP180;65856;52.178;21.176;2023-03-13T04:14:10;99794.00;;;2.30
76898;BMP180;65856;52.178;21.176;2023-03-13T04:16:38;99792.00;;;2.30
76898;BMP180;65856;52.178;21.176;2023-03-13T04:19:06;99787.00;;;2.30
76898;BMP180;65856;52.178;21.176;2023-03-13T04:21:34;99786.20;;;2.22
76898;BMP180;65856;52.178;21.176;2023-03-13T04:24:02;99783.40;;;2.20
76898;BMP180;65856;52.178;21.176;2023-03-13T04:26:30;99790.40;;;2.26
76898;BMP180;65856;52.178;21.176;2023-03-13T04:28:58;99793.40;;;2.30
76898;BMP180;65856;52.178;21.176;2023-03-13T04:31:26;99790.40;;;2.30
76898;BMP180;65856;52.178;21.176;2023-03-13T04:33:54;99786.20;;;2.30
76898;BMP180;65856;52.178;21.176;2023-03-13T04:36:22;99787.00;;;2.30
76898;BMP180;65856;52.178;21.176;2023-03-13T04:38:50;99782.40;;;2.20
76898;BMP180;65856;52.178;21.176;2023-03-13T04:41:18;99782.40;;;2.20
76898;BMP180;65856;52.178;21.176;2023-03-13T04:43:47;99778.60;;;2.20
76898;BMP180;65856;52.178;21.176;2023-03-13T04:46:14;99775.80;;;2.26
76898;BMP180;65856;52.178;21.176;2023-03-13T04:48:43;99766.40;;;2.30
76898;BMP180;65856;52.178;21.176;2023-03-13T04:51:11;99756.40;;;2.30
76898;BMP180;65856;52.178;21.176;2023-03-13T04:53:39;99753.20;;;2.30
76898;BMP180;65856;52.178;21.176;2023-03-13T04:56:08;99759.60;;;2.26
76898;BMP180;65856;52.178;21.176;2023-03-13T04:58:36;99763.60;;;2.26
76898;BMP180;65856;52.178;21.176;2023-03-13T05:01:04;99770.20;;;2.20
76898;BMP180;65856;52.178;21.176;2023-03-13T05:03:32;99772.40;;;2.20
76898;BMP180;65856;52.178;21.176;2023-03-13T05:06:00;99766.80;;;2.20
76898;BMP180;65856;52.178;21.176;2023-03-13T05:08:28;99764.60;;;2.20
76898;BMP180;65856;52.178;21.176;2023-03-13T05:10:56;99759.40;;;2.20
76898;BMP180;65856;52.178;21.176;2023-03-13T05:13:24;99759.40;;;2.20
76898;BMP180;65856;52.178;21.176;2023-03-13T05:15:52;99752.80;;;2.24
76898;BMP180;65856;52.178;21.176;2023-03-13T05:18:20;99748.20;;;2.30
76898;BMP180;65856;52.178;21.176;2023-03-13T05:20:48;99752.80;;;2.32
76898;BMP180;65856;52.178;21.176;2023-03-13T05:23:16;99745.60;;;2.40
76898;BMP180;65856;52.178;21.176;2023-03-13T05:25:44;99751.00;;;2.40
76898;BMP180;65856;52.178;21.176;2023-03-13T05:28:12;99747.60;;;2.40
76898;BMP180;65856;52.178;21.176;2023-03-13T05:30:41;99749.40;;;2.40
76898;BMP180;65856;52.178;21.176;2023-03-13T05:33:09;99750.80;;;2.40
76898;BMP180;65856;52.178;21.176;2023-03-13T05:35:37;99749.40;;;2.40
76898;BMP180;65856;52.178;21.176;2023-03-13T05:38:05;99742.00;;;2.40
76898;BMP180;65856;52.178;21.176;2023-03-13T05:40:33;99748.60;;;2.40
76898;BMP180;65856;52.178;21.176;2023-03-13T05:43:01;99750.40;;;2.40
76898;BMP180;65856;52.178;21.176;2023-03-13T05:45:29;99749.20;;;2.40
76898;BMP180;65856;52.178;21.176;2023-03-13T05:47:57;99750.00;;;2.40
76898;BMP180;65856;52.178;21.176;2023-03-13T05:50:26;99748.40;;;2.44
76898;BMP180;65856;52.178;21.176;2023-03-13T05:52:54;99751.20;;;2.50
76898;BMP180;65856;52.178;21.176;2023-03-13T05:55:22;99758.40;;;2.50
76898;BMP180;65856;52.178;21.176;2023-03-13T05:57:50;99760.40;;;2.60
76898;BMP180;65856;52.178;21.176;2023-03-13T06:00:20;99766.60;;;2.60
76898;BMP180;65856;52.178;21.176;2023-03-13T06:02:48;99765.00;;;2.68
76898;BMP180;65856;52.178;21.176;2023-03-13T06:05:16;99769.20;;;2.70
76898;BMP180;65856;52.178;21.176;2023-03-13T06:07:44;99762.00;;;2.70
76898;BMP180;65856;52.178;21.176;2023-03-13T06:10:13;99749.80;;;2.70
76898;BMP180;65856;52.178;21.176;2023-03-13T06:12:41;99745.00;;;2.70
76898;BMP180;65856;52.178;21.176;2023-03-13T06:15:11;99743.40;;;2.74
76898;BMP180;65856;52.178;21.176;2023-03-13T06:17:39;99746.00;;;2.76
76898;BMP180;65856;52.178;21.176;2023-03-13T06:20:10;99747.60;;;2.80
76898;BMP180;65856;52.178;21.176;2023-03-13T06:22:38;99744.80;;;2.80
76898;BMP180;65856;52.178;21.176;2023-03-13T06:25:09;99757.00;;;2.80
76898;BMP180;65856;52.178;21.176;2023-03-13T06:27:37;99757.20;;;2.80
76898;BMP180;65856;52.178;21.176;2023-03-13T06:30:07;99742.20;;;2.80
76898;BMP180;65856;52.178;21.176;2023-03-13T06:32:36;99736.80;;;2.84
76898;BMP180;65856;52.178;21.176;2023-03-13T06:35:05;99743.00;;;2.90
76898;BMP180;65856;52.178;21.176;2023-03-13T06:37:33;99738.80;;;2.90
76898;BMP180;65856;52.178;21.176;2023-03-13T06:40:02;99747.40;;;2.86
76898;BMP180;65856;52.178;21.176;2023-03-13T06:42:32;99746.40;;;2.80
76898;BMP180;65856;52.178;21.176;2023-03-13T06:45:00;99746.00;;;2.86
76898;BMP180;65856;52.178;21.176;2023-03-13T06:47:31;99744.00;;;2.90
76898;BMP180;65856;52.178;21.176;2023-03-13T06:49:59;99745.20;;;3.00
76898;BMP180;65856;52.178;21.176;2023-03-13T06:52:27;99738.40;;;3.00
76898;BMP180;65856;52.178;21.176;2023-03-13T06:54:56;99739.60;;;3.00
76898;BMP180;65856;52.178;21.176;2023-03-13T06:57:24;99740.60;;;3.10
76898;BMP180;65856;52.178;21.176;2023-03-13T06:59:52;99737.80;;;3.20
76898;BMP180;65856;52.178;21.176;2023-03-13T07:02:20;99730.20;;;3.20
76898;BMP180;65856;52.178;21.176;2023-03-13T07:04:48;99737.00;;;3.22
76898;BMP180;65856;52.178;21.176;2023-03-13T07:07:16;99734.80;;;3.30
76898;BMP180;65856;52.178;21.176;2023-03-13T07:09:44;99730.80;;;3.30
76898;BMP180;65856;52.178;21.176;2023-03-13T07:12:12;99731.00;;;3.30
76898;BMP180;65856;52.178;21.176;2023-03-13T07:14:40;99726.20;;;3.30
76898;BMP180;65856;52.178;21.176;2023-03-13T07:17:08;99726.00;;;3.40
76898;BMP180;65856;52.178;21.176;2023-03-13T07:19:36;99720.00;;;3.40
76898;BMP180;65856;52.178;21.176;2023-03-13T07:22:05;99723.40;;;3.46
76898;BMP180;65856;52.178;21.176;2023-03-13T07:24:33;99726.00;;;3.50
76898;BMP180;65856;52.178;21.176;2023-03-13T07:27:01;99721.20;;;3.50
76898;BMP180;65856;52.178;21.176;2023-03-13T07:29:29;99723.40;;;3.60
76898;BMP180;65856;52.178;21.176;2023-03-13T07:31:57;99721.80;;;3.60
76898;BMP180;65856;52.178;21.176;2023-03-13T07:34:25;99722.40;;;3.70
76898;BMP180;65856;52.178;21.176;2023-03-13T07:36:53;99718.60;;;3.70
76898;BMP180;65856;52.178;21.176;2023-03-13T07:39:21;99714.60;;;3.70
76898;BMP180;65856;52.178;21.176;2023-03-13T07:41:49;99707.40;;;3.80
76898;BMP180;65856;52.178;21.176;2023-03-13T07:44:17;99711.00;;;3.86
76898;BMP180;65856;52.178;21.176;2023-03-13T07:46:45;99702.00;;;3.90
76898;BMP180;65856;52.178;21.176;2023-03-13T07:49:15;99710.60;;;3.90
76898;BMP180;65856;52.178;21.176;2023-03-13T07:51:43;99703.60;;;3.98
76898;BMP180;65856;52.178;21.176;2023-03-13T07:54:14;99701.60;;;4.00
76898;BMP180;65856;52.178;21.176;2023-03-13T07:56:42;99693.80;;;4.00
76898;BMP180;65856;52.178;21.176;2023-03-13T07:59:10;99692.60;;;4.02
76898;BMP180;65856;52.178;21.176;2023-03-13T08:01:38;99700.80;;;4.10
76898;BMP180;65856;52.178;21.176;2023-03-13T08:04:07;99693.60;;;4.20
76898;BMP180;65856;52.178;21.176;2023-03-13T08:06:37;99691.60;;;4.20
76898;BMP180;65856;52.178;21.176;2023-03-13T08:09:06;99695.80;;;4.30
76898;BMP180;65856;52.178;21.176;2023-03-13T08:11:34;99695.60;;;4.40
76898;BMP180;65856;52.178;21.176;2023-03-13T08:14:02;99690.20;;;4.44
76898;BMP180;65856;52.178;21.176;2023-03-13T08:16:33;99693.40;;;4.50
76898;BMP180;65856;52.178;21.176;2023-03-13T08:19:03;99686.00;;;4.50
76898;BMP180;65856;52.178;21.176;2023-03-13T08:21:35;99682.80;;;4.50
76898;BMP180;65856;52.178;21.176;2023-03-13T08:24:06;99684.00;;;4.52
76898;BMP180;65856;52.178;21.176;2023-03-13T08:26:37;99688.60;;;4.60
76898;BMP180;65856;52.178;21.176;2023-03-13T08:29:09;99688.80;;;4.60
76898;BMP180;65856;52.178;21.176;2023-03-13T08:31:42;99692.40;;;4.70
76898;BMP180;65856;52.178;21.176;2023-03-13T08:34:12;99688.60;;;4.70
76898;BMP180;65856;52.178;21.176;2023-03-13T08:36:41;99684.00;;;4.78
76898;BMP180;65856;52.178;21.176;2023-03-13T08:39:13;99681.40;;;4.80
76898;BMP180;65856;52.178;21.176;2023-03-13T08:44:46;99679.00;;;4.90
76898;BMP180;65856;52.178;21.176;2023-03-13T08:47:17;99674.40;;;4.94
76898;BMP180;65856;52.178;21.176;2023-03-13T08:49:48;99673.00;;;5.00
76898;BMP180;65856;52.178;21.176;2023-03-13T08:52:19;99666.00;;;5.10
76898;BMP180;65856;52.178;21.176;2023-03-13T08:54:51;99658.60;;;5.10
76898;BMP180;65856;52.178;21.176;2023-03-13T08:57:22;99660.00;;;5.20
76898;BMP180;65856;52.178;21.176;2023-03-13T08:59:53;99654.60;;;5.28
76898;BMP180;65856;52.178;21.176;2023-03-13T09:02:24;99646.40;;;5.40
76898;BMP180;65856;52.178;21.176;2023-03-13T09:04:55;99643.80;;;5.46
76898;BMP180;65856;52.178;21.176;2023-03-13T09:07:25;99635.40;;;5.60
76898;BMP180;65856;52.178;21.176;2023-03-13T09:09:56;99623.80;;;5.70
76898;BMP180;65856;52.178;21.176;2023-03-13T09:12:27;99616.60;;;5.90
76898;BMP180;65856;52.178;21.176;2023-03-13T09:14:59;99618.40;;;6.04
76898;BMP180;65856;52.178;21.176;2023-03-13T09:17:30;99615.80;;;6.24
76898;BMP180;65856;52.178;21.176;2023-03-13T09:20:00;99604.80;;;6.50
76898;BMP180;65856;52.178;21.176;2023-03-13T09:22:31;99606.80;;;6.80
76898;BMP180;65856;52.178;21.176;2023-03-13T09:25:02;99601.60;;;7.00
76898;BMP180;65856;52.178;21.176;2023-03-13T09:27:32;99599.20;;;7.18
76898;BMP180;65856;52.178;21.176;2023-03-13T09:30:04;99597.20;;;7.30
76898;BMP180;65856;52.178;21.176;2023-03-13T09:32:36;99600.40;;;7.40
76898;BMP180;65856;52.178;21.176;2023-03-13T09:35:08;99591.60;;;7.50
76898;BMP180;65856;52.178;21.176;2023-03-13T09:37:39;99583.40;;;7.60
76898;BMP180;65856;52.178;21.176;2023-03-13T09:40:14;99577.00;;;7.70
76898;BMP180;65856;52.178;21.176;2023-03-13T09:42:50;99577.20;;;7.90
76898;BMP180;65856;52.178;21.176;2023-03-13T09:45:30;99575.60;;;8.00
76898;BMP180;65856;52.178;21.176;2023-03-13T09:48:07;99569.20;;;8.20
76898;BMP180;65856;52.178;21.176;2023-03-13T09:50:46;99564.40;;;8.30
76898;BMP180;65856;52.178;21.176;2023-03-13T09:53:29;99564.00;;;8.40
76898;BMP180;65856;52.178;21.176;2023-03-13T09:56:15;99554.20;;;8.50
76898;BMP180;65856;52.178;21.176;2023-03-13T09:58:54;99556.20;;;8.60
76898;BMP180;65856;52.178;21.176;2023-03-13T10:01:30;99552.80;;;8.70
76898;BMP180;65856;52.178;21.176;2023-03-13T10:04:18;99548.40;;;8.82
76898;BMP180;65856;52.178;21.176;2023-03-13T10:06:50;99545.60;;;9.00
76898;BMP180;65856;52.178;21.176;2023-03-13T10:09:25;99540.00;;;9.20
76898;BMP180;65856;52.178;21.176;2023-03-13T10:12:06;99536.00;;;9.50
76898;BMP180;65856;52.178;21.176;2023-03-13T10:14:52;99533.00;;;9.64
76898;BMP180;65856;52.178;21.176;2023-03-13T10:17:34;99529.40;;;9.80
76898;BMP180;65856;52.178;21.176;2023-03-13T10:20:24;99524.20;;;9.90
76898;BMP180;65856;52.178;21.176;2023-03-13T10:23:01;99531.60;;;10.06
76898;BMP180;65856;52.178;21.176;2023-03-13T10:25:35;99526.80;;;10.12
76898;BMP180;65856;52.178;21.176;2023-03-13T10:28:11;99521.00;;;10.20
76898;BMP180;65856;52.178;21.176;2023-03-13T10:30:47;99524.40;;;10.20
76898;BMP180;65856;52.178;21.176;2023-03-13T10:33:26;99522.60;;;10.22
76898;BMP180;65856;52.178;21.176;2023-03-13T10:36:10;99519.80;;;10.20
76898;BMP180;65856;52.178;21.176;2023-03-13T10:38:51;99526.40;;;10.20
76898;BMP180;65856;52.178;21.176;2023-03-13T10:41:28;99528.60;;;10.16
76898;BMP180;65856;52.178;21.176;2023-03-13T10:44:04;99520.40;;;10.16
76898;BMP180;65856;52.178;21.176;2023-03-13T10:46:42;99515.00;;;10.20
76898;BMP180;65856;52.178;21.176;2023-03-13T10:49:18;99519.20;;;10.14
76898;BMP180;65856;52.178;21.176;2023-03-13T10:51:52;99503.60;;;10.10
76898;BMP180;65856;52.178;21.176;2023-03-13T10:54:26;99503.60;;;10.10
76898;BMP180;65856;52.178;21.176;2023-03-13T10:57:28;99502.40;;;10.10
76898;BMP180;65856;52.178;21.176;2023-03-13T11:00:00;99493.20;;;10.10
76898;BMP180;65856;52.178;21.176;2023-03-13T11:02:40;99480.00;;;10.10
76898;BMP180;65856;52.178;21.176;2023-03-13T11:05:45;99478.40;;;10.10
76898;BMP180;65856;52.178;21.176;2023-03-13T11:08:27;99476.40;;;10.18
76898;BMP180;65856;52.178;21.176;2023-03-13T11:11:03;99464.60;;;10.20
76898;BMP180;65856;52.178;21.176;2023-03-13T11:13:40;99464.60;;;10.20
76898;BMP180;65856;52.178;21.176;2023-03-13T11:16:25;99466.00;;;10.20
76898;BMP180;65856;52.178;21.176;2023-03-13T11:19:14;99466.80;;;10.24
76898;BMP180;65856;52.178;21.176;2023-03-13T11:22:04;99456.60;;;10.28
76898;BMP180;65856;52.178;21.176;2023-03-13T11:24:43;99446.40;;;10.20
76898;BMP180;65856;52.178;21.176;2023-03-13T11:27:28;99442.20;;;10.20
76898;BMP180;65856;52.178;21.176;2023-03-13T11:30:18;99440.00;;;10.20
76898;BMP180;65856;52.178;21.176;2023-03-13T11:32:55;99443.80;;;10.26
76898;BMP180;65856;52.178;21.176;2023-03-13T11:35:46;99435.40;;;10.30
76898;BMP180;65856;52.178;21.176;2023-03-13T11:38:28;99430.80;;;10.30
76898;BMP180;65856;52.178;21.176;2023-03-13T11:41:20;99411.80;;;10.50
76898;BMP180;65856;52.178;21.176;2023-03-13T11:44:14;99412.60;;;10.50
76898;BMP180;65856;52.178;21.176;2023-03-13T11:47:04;99399.40;;;10.68
76898;BMP180;65856;52.178;21.176;2023-03-13T11:50:09;99395.80;;;10.80
76898;BMP180;65856;52.178;21.176;2023-03-13T11:52:59;99383.40;;;11.00
76898;BMP180;65856;52.178;21.176;2023-03-13T11:55:50;99381.00;;;11.10
76898;BMP180;65856;52.178;21.176;2023-03-13T11:58:58;99378.80;;;11.20
76898;BMP180;65856;52.178;21.176;2023-03-13T12:01:35;99370.80;;;11.20
76898;BMP180;65856;52.178;21.176;2023-03-13T12:04:19;99358.20;;;11.20
76898;BMP180;65856;52.178;21.176;2023-03-13T12:06:59;99364.80;;;11.12
76898;BMP180;65856;52.178;21.176;2023-03-13T12:09:38;99357.60;;;11.20
76898;BMP180;65856;52.178;21.176;2023-03-13T12:12:19;99357.80;;;11.20
76898;BMP180;65856;52.178;21.176;2023-03-13T12:14:59;99360.60;;;11.10
76898;BMP180;65856;52.178;21.176;2023-03-13T12:17:37;99360.40;;;11.10
76898;BMP180;65856;52.178;21.176;2023-03-13T12:22:59;99353.20;;;11.20
76898;BMP180;65856;52.178;21.176;2023-03-13T12:25:44;99357.40;;;11.20
76898;BMP180;65856;52.178;21.176;2023-03-13T12:28:26;99350.40;;;11.20
76898;BMP180;65856;52.178;21.176;2023-03-13T12:31:10;99344.80;;;11.20
76898;BMP180;65856;52.178;21.176;2023-03-13T12:33:50;99343.60;;;11.20
76898;BMP180;65856;52.178;21.176;2023-03-13T12:36:30;99340.40;;;11.20
76898;BMP180;65856;52.178;21.176;2023-03-13T12:39:20;99338.80;;;11.24
76898;BMP180;65856;52.178;21.176;2023-03-13T12:42:12;99333.60;;;11.30
76898;BMP180;65856;52.178;21.176;2023-03-13T12:44:47;99331.60;;;11.20
76898;BMP180;65856;52.178;21.176;2023-03-13T12:47:28;99327.40;;;11.20
76898;BMP180;65856;52.178;21.176;2023-03-13T12:50:29;99328.20;;;11.20
76898;BMP180;65856;52.178;21.176;2023-03-13T12:56:40;99319.40;;;11.10
76898;BMP180;65856;52.178;21.176;2023-03-13T12:59:20;99316.20;;;11.10
76898;BMP180;65856;52.178;21.176;2023-03-13T13:01:55;99315.60;;;11.00
76898;BMP180;65856;52.178;21.176;2023-03-13T13:04:29;99311.60;;;11.00
76898;BMP180;65856;52.178;21.176;2023-03-13T13:07:05;99311.60;;;11.00
76898;BMP180;65856;52.178;21.176;2023-03-13T13:09:38;99304.00;;;11.00
76898;BMP180;65856;52.178;21.176;2023-03-13T13:12:30;99300.20;;;10.90
76898;BMP180;65856;52.178;21.176;2023-03-13T13:15:14;99300.80;;;10.90
76898;BMP180;65856;52.178;21.176;2023-03-13T13:18:14;99294.00;;;10.88
76898;BMP180;65856;52.178;21.176;2023-03-13T13:21:20;99297.80;;;10.80
76898;BMP180;65856;52.178;21.176;2023-03-13T13:23:52;99295.20;;;10.80
76898;BMP180;65856;52.178;21.176;2023-03-13T13:26:50;99292.80;;;10.74
76898;BMP180;65856;52.178;21.176;2023-03-13T13:29:59;99288.40;;;10.70
76898;BMP180;65856;52.178;21.176;2023-03-13T13:32:48;99298.00;;;10.60
76898;BMP180;65856;52.178;21.176;2023-03-13T13:35:36;99291.20;;;10.60
76898;BMP180;65856;52.178;21.176;2023-03-13T13:38:38;99288.20;;;10.54
76898;BMP180;65856;52.178;21.176;2023-03-13T13:41:36;99285.40;;;10.50
76898;BMP180;65856;52.178;21.176;2023-03-13T13:44:33;99274.80;;;10.50
76898;BMP180;65856;52.178;21.176;2023-03-13T13:47:18;99274.00;;;10.40
76898;BMP180;65856;52.178;21.176;2023-03-13T13:49:57;99275.00;;;10.40
76898;BMP180;65856;52.178;21.176;2023-03-13T13:52:39;99277.60;;;10.30
76898;BMP180;65856;52.178;21.176;2023-03-13T13:55:39;99278.20;;;10.30
76898;BMP180;65856;52.178;21.176;2023-03-13T13:58:19;99272.60;;;10.20
76898;BMP180;65856;52.178;21.176;2023-03-13T14:00:57;99264.60;;;10.20
76898;BMP180;65856;52.178;21.176;2023-03-13T14:03:31;99262.60;;;10.10
76898;BMP180;65856;52.178;21.176;2023-03-13T14:06:18;99265.00;;;10.10
76898;BMP180;65856;52.178;21.176;2023-03-13T14:08:57;99261.40;;;10.00
76898;BMP180;65856;52.178;21.176;2023-03-13T14:11:37;99260.20;;;10.00
76898;BMP180;65856;52.178;21.176;2023-03-13T14:14:17;99265.60;;;9.90
76898;BMP180;65856;52.178;21.176;2023-03-13T14:16:52;99252.80;;;9.90
76898;BMP180;65856;52.178;21.176;2023-03-13T14:19:32;99236.00;;;9.90
76898;BMP180;65856;52.178;21.176;2023-03-13T14:22:08;99231.80;;;9.80
76898;BMP180;65856;52.178;21.176;2023-03-13T14:24:40;99234.20;;;9.80
76898;BMP180;65856;52.178;21.176;2023-03-13T14:27:19;99227.00;;;9.70
76898;BMP180;65856;52.178;21.176;2023-03-13T14:30:05;99219.60;;;9.70
76898;BMP180;65856;52.178;21.176;2023-03-13T14:32:37;99217.80;;;9.70
76898;BMP180;65856;52.178;21.176;2023-03-13T14:35:12;99218.80;;;9.60
76898;BMP180;65856;52.178;21.176;2023-03-13T14:37:46;99209.20;;;9.60
76898;BMP180;65856;52.178;21.176;2023-03-13T14:40:32;99204.60;;;9.60
76898;BMP180;65856;52.178;21.176;2023-03-13T14:43:19;99206.80;;;9.60
76898;BMP180;65856;52.178;21.176;2023-03-13T14:45:51;99206.00;;;9.54
76898;BMP180;65856;52.178;21.176;2023-03-13T14:48:28;99198.40;;;9.50
76898;BMP180;65856;52.178;21.176;2023-03-13T14:51:09;99186.60;;;9.50
76898;BMP180;65856;52.178;21.176;2023-03-13T14:53:42;99183.00;;;9.50
76898;BMP180;65856;52.178;21.176;2023-03-13T14:56:31;99173.40;;;9.50